createdAt,value
2023-04-03T03:12:41.532Z,99.90
2023-04-03T03:15:10.743Z,99.90
2023-04-03T03:17:45.549Z,99.90
2023-04-03T03:20:16.347Z,99.90
2023-04-03T03:22:44.706Z,99.90
2023-04-03T03:25:12.912Z,99.90
2023-04-03T03:27:42.554Z,99.90
2023-04-03T03:30:11.674Z,99.90
2023-04-03T03:32:40.058Z,99.90
2023-04-03T03:35:09.498Z,99.90
2023-04-03T03:37:40.049Z,99.90
2023-04-03T03:40:09.916Z,99.90
2023-04-03T03:42:39.342Z,99.90
2023-04-03T03:45:11.128Z,99.90
2023-04-03T03:47:39.525Z,99.90
2023-04-03T03:50:09.134Z,1.00
2023-04-03T03:52:37.495Z,1.00
2023-04-03T03:55:06.963Z,1.00
2023-04-03T03:57:37.444Z,1.00
2023-04-03T04:00:09.983Z,1.00
2023-04-03T04:02:43.966Z,1.00
2023-04-03T04:05:16.721Z,1.00
2023-04-03T04:07:45.475Z,1.00
2023-04-03T04:10:14.788Z,1.00
2023-04-03T04:12:44.707Z,1.00
2023-04-03T04:15:14.888Z,1.00
2023-04-03T04:17:43.495Z,1.00
2023-04-03T04:20:14.348Z,1.00
2023-04-03T04:22:42.999Z,1.00
2023-04-03T04:25:12.075Z,1.00
2023-04-03T04:27:41.796Z,1.00
2023-04-03T04:30:12.071Z,1.00
2023-04-03T04:32:41.788Z,1.00
2023-04-03T04:35:10.854Z,1.00
2023-04-03T04:37:43.305Z,1.00
2023-04-03T04:40:12.285Z,1.00
2023-04-03T04:42:41.363Z,1.00
2023-04-03T04:45:10.110Z,1.00
2023-04-03T04:47:42.130Z,1.00
2023-04-03T04:50:12.473Z,1.00
2023-04-03T04:52:42.319Z,1.00
2023-04-03T04:55:11.061Z,1.00
2023-04-03T04:57:39.931Z,1.00
2023-04-03T05:00:10.536Z,1.00
2023-04-03T05:02:38.996Z,1.00
2023-04-03T05:05:10.606Z,1.00
2023-04-03T05:07:39.565Z,1.00
2023-04-03T05:10:09.934Z,1.00
2023-04-03T05:12:38.514Z,99.90
2023-04-03T05:15:08.804Z,1.00
2023-04-03T05:17:37.645Z,99.90
2023-04-03T05:20:10.366Z,1.00
2023-04-03T05:22:39.510Z,99.90
2023-04-03T05:25:11.497Z,99.90
2023-04-03T05:27:41.960Z,99.90
2023-04-03T05:30:11.074Z,99.90
2023-04-03T05:32:41.977Z,99.90
2023-04-03T05:35:24.813Z,99.90
2023-04-03T05:37:58.586Z,99.90
2023-04-03T05:40:27.510Z,99.90
2023-04-03T05:42:57.987Z,99.90
2023-04-03T05:45:28.900Z,99.90
2023-04-03T05:47:59.116Z,99.90
2023-04-03T05:50:29.160Z,99.90
2023-04-03T05:53:00.133Z,99.90
2023-04-03T05:55:31.006Z,99.90
2023-04-03T05:57:59.386Z,99.90
2023-04-03T06:00:28.706Z,99.90
2023-04-03T06:03:03.156Z,99.90
2023-04-03T06:05:33.036Z,99.90
2023-04-03T06:08:01.424Z,99.90
2023-04-03T06:10:29.749Z,99.90
2023-04-03T06:12:58.064Z,99.90
2023-04-03T06:15:26.362Z,99.90
2023-04-03T06:17:54.713Z,99.90
2023-04-03T06:20:23.274Z,99.90
2023-04-03T06:22:53.136Z,99.90
2023-04-03T06:25:22.216Z,99.90
2023-04-03T06:27:50.740Z,99.90
2023-04-03T06:30:19.055Z,99.90
2023-04-03T06:32:47.465Z,99.90
2023-04-03T06:35:15.962Z,99.90
2023-04-03T06:37:44.276Z,99.90
2023-04-03T06:40:19.884Z,99.90
2023-04-03T06:42:48.821Z,99.90
2023-04-03T06:45:20.424Z,99.90
2023-04-03T06:47:48.874Z,99.90
2023-04-03T06:50:17.237Z,99.90
2023-04-03T06:52:45.882Z,99.90
2023-04-03T06:55:15.591Z,99.90
2023-04-03T06:57:43.938Z,99.90
2023-04-03T07:00:14.260Z,99.90
2023-04-03T07:02:42.868Z,99.90
2023-04-03T07:05:11.715Z,99.90
2023-04-03T07:07:40.307Z,99.90
2023-04-03T07:10:10.709Z,99.90
2023-04-03T07:12:40.657Z,97.80
2023-04-03T07:15:10.429Z,65.00
2023-04-03T07:17:38.979Z,41.30
2023-04-03T07:20:08.638Z,38.20
2023-04-03T07:22:37.496Z,49.70
2023-04-03T07:25:08.260Z,47.30
2023-04-03T07:27:37.045Z,55.10
2023-04-03T07:30:07.858Z,58.10
2023-04-03T07:32:36.310Z,47.20
2023-04-03T07:35:04.984Z,59.70
2023-04-03T07:37:33.480Z,71.00
2023-04-03T07:40:04.592Z,69.90
2023-04-03T07:42:32.971Z,72.20
2023-04-03T07:45:01.781Z,70.20
2023-04-03T07:47:32.391Z,76.60
2023-04-03T07:50:00.761Z,91.80
2023-04-03T07:52:29.160Z,68.90
2023-04-03T07:54:57.512Z,73.70
2023-04-03T07:57:25.933Z,88.50
2023-04-03T07:59:54.460Z,94.80
2023-04-03T08:02:22.839Z,99.90
2023-04-03T08:04:52.685Z,81.80
2023-04-03T08:07:22.234Z,93.00
2023-04-03T08:09:50.870Z,92.80
2023-04-03T08:12:21.787Z,90.90
2023-04-03T08:14:50.040Z,80.90
2023-04-03T08:17:18.430Z,90.50
2023-04-03T08:19:47.137Z,87.50
2023-04-03T08:22:19.446Z,82.70
2023-04-03T08:24:58.569Z,85.50
2023-04-03T08:27:28.575Z,86.20
2023-04-03T08:29:58.026Z,85.20
2023-04-03T08:32:26.999Z,88.10
2023-04-03T08:34:55.501Z,77.20
2023-04-03T08:37:25.178Z,74.80
2023-04-03T08:39:54.440Z,69.20
2023-04-03T08:42:36.923Z,72.80
2023-04-03T08:45:11.190Z,67.00
2023-04-03T08:47:45.220Z,74.90
2023-04-03T08:50:18.789Z,70.60
2023-04-03T08:52:52.545Z,75.60
2023-04-03T08:55:26.248Z,76.00
2023-04-03T08:58:02.842Z,69.30
2023-04-03T09:00:36.855Z,62.00
2023-04-03T09:03:09.489Z,65.90
2023-04-03T09:05:47.371Z,68.60
2023-04-03T09:08:24.964Z,71.10
2023-04-03T09:10:57.024Z,66.60
2023-04-03T09:13:32.497Z,69.50
2023-04-03T09:16:04.467Z,68.60
2023-04-03T09:18:40.582Z,66.90
2023-04-03T09:21:19.146Z,65.50
2023-04-03T09:23:52.496Z,61.40
2023-04-03T09:26:27.109Z,58.80
2023-04-03T09:28:58.856Z,57.00
2023-04-03T09:31:30.760Z,57.60
2023-04-03T09:34:04.162Z,61.40
2023-04-03T09:36:46.430Z,60.20
2023-04-03T09:39:18.526Z,64.40
2023-04-03T09:42:00.569Z,62.20
2023-04-03T09:44:30.957Z,64.30
2023-04-03T09:46:59.706Z,56.60
2023-04-03T09:49:28.479Z,55.70
2023-04-03T09:51:56.723Z,53.40
2023-04-03T09:54:41.036Z,54.20
2023-04-03T09:57:15.318Z,53.20
2023-04-03T09:59:48.362Z,52.30
2023-04-03T10:02:32.912Z,55.80
2023-04-03T10:05:09.593Z,55.20
2023-04-03T10:07:42.911Z,59.50
2023-04-03T10:10:26.638Z,57.90
2023-04-03T10:13:08.188Z,61.40
2023-04-03T10:15:43.549Z,58.10
2023-04-03T10:18:31.045Z,54.90
2023-04-03T10:21:09.672Z,66.40
2023-04-03T10:23:46.908Z,68.50
2023-04-03T10:26:26.706Z,74.30
2023-04-03T10:29:03.074Z,70.40
2023-04-03T10:31:39.394Z,78.70
2023-04-03T10:34:12.805Z,77.20
2023-04-03T10:36:48.696Z,71.60
2023-04-03T10:39:27.526Z,74.90
2023-04-03T10:42:16.762Z,66.50
2023-04-03T10:45:16.873Z,61.20
2023-04-03T10:47:55.737Z,58.00
2023-04-03T10:50:43.251Z,64.40
2023-04-03T10:53:20.311Z,65.90
2023-04-03T10:55:55.639Z,67.30
2023-04-03T10:58:31.863Z,75.30
2023-04-03T11:01:08.331Z,78.60
2023-04-03T11:03:39.269Z,78.30
2023-04-03T11:06:12.310Z,76.90
2023-04-03T11:08:46.620Z,75.60
2023-04-03T11:11:18.782Z,71.60
2023-04-03T11:13:54.497Z,65.60
2023-04-03T11:16:26.852Z,61.20
2023-04-03T11:19:00.625Z,57.30
2023-04-03T11:21:33.908Z,55.50
2023-04-03T11:24:08.733Z,62.80
2023-04-03T11:26:42.688Z,66.70
2023-04-03T11:29:28.248Z,69.80
2023-04-03T11:32:28.378Z,66.20
2023-04-03T11:35:00.298Z,66.00
2023-04-03T11:37:36.610Z,68.70
2023-04-03T11:40:10.376Z,71.30
2023-04-03T11:42:40.565Z,87.50
2023-04-03T11:45:33.862Z,70.60
2023-04-03T11:48:16.678Z,67.50
2023-04-03T11:50:52.381Z,68.50
2023-04-03T11:53:38.103Z,72.00
2023-04-03T11:56:23.686Z,75.30
2023-04-03T11:59:24.616Z,75.40
2023-04-03T12:01:55.186Z,73.60
2023-04-03T12:04:25.926Z,71.50
2023-04-03T12:07:18.359Z,69.50
2023-04-03T12:10:30.376Z,73.90
2023-04-03T12:13:05.416Z,74.20
2023-04-03T12:15:54.843Z,68.80
2023-04-03T12:18:59.672Z,64.50
2023-04-03T12:22:00.550Z,62.50
2023-04-03T12:24:30.662Z,67.90
2023-04-03T12:27:21.965Z,72.20
2023-04-03T12:29:57.199Z,73.60
2023-04-03T12:32:44.124Z,71.90
2023-04-03T12:35:32.635Z,70.90
2023-04-03T12:38:25.282Z,71.30
2023-04-03T12:40:59.440Z,78.10
2023-04-03T12:43:48.410Z,93.40
2023-04-03T12:46:20.575Z,71.00
2023-04-03T12:48:52.511Z,72.60
2023-04-03T12:51:27.068Z,68.90
2023-04-03T12:54:02.429Z,75.50
2023-04-03T12:56:32.948Z,79.00
2023-04-03T12:59:16.937Z,80.70
2023-04-03T13:01:45.663Z,75.70
2023-04-03T13:04:14.468Z,73.90
2023-04-03T13:06:45.986Z,75.80
2023-04-03T13:09:23.852Z,76.60
2023-04-03T13:11:55.926Z,80.60
2023-04-03T13:14:26.281Z,79.20
2023-04-03T13:16:59.863Z,82.20
2023-04-03T13:19:30.121Z,81.20
2023-04-03T13:22:04.512Z,74.30
2023-04-03T13:24:37.257Z,75.30
2023-04-03T13:27:06.733Z,70.40
2023-04-03T13:29:37.374Z,68.80
2023-04-03T13:32:06.982Z,72.50
2023-04-03T13:34:39.643Z,72.30
2023-04-03T13:37:20.898Z,90.50
2023-04-03T13:40:01.508Z,68.30
2023-04-03T13:42:32.457Z,73.40
2023-04-03T13:45:20.974Z,69.90
2023-04-03T13:47:51.110Z,71.60
2023-04-03T13:50:22.176Z,76.90
2023-04-03T13:52:55.554Z,80.60
2023-04-03T13:55:27.333Z,77.20
2023-04-03T13:57:59.056Z,72.50
2023-04-03T14:00:39.483Z,73.80
2023-04-03T14:03:16.211Z,74.50
2023-04-03T14:05:46.266Z,78.60
2023-04-03T14:08:16.140Z,72.90
2023-04-03T14:10:44.683Z,79.00
2023-04-03T14:13:15.804Z,79.60
2023-04-03T14:15:44.498Z,74.80
2023-04-03T14:18:14.385Z,72.40
2023-04-03T14:20:42.893Z,73.90
2023-04-03T14:23:13.498Z,71.20
2023-04-03T14:25:44.920Z,68.50
2023-04-03T14:28:20.006Z,73.40
2023-04-03T14:30:49.195Z,71.50
2023-04-03T14:33:20.092Z,67.10
2023-04-03T14:35:49.409Z,66.20
2023-04-03T14:38:25.630Z,66.40
2023-04-03T14:41:00.963Z,66.80
2023-04-03T14:43:35.056Z,64.30
2023-04-03T14:46:03.627Z,63.80
2023-04-03T14:48:32.560Z,64.40
2023-04-03T14:51:05.568Z,63.30
2023-04-03T14:56:14.197Z,62.50
2023-04-03T14:58:42.597Z,63.30
2023-04-03T15:01:13.144Z,57.80
2023-04-03T15:03:41.497Z,66.50
2023-04-03T15:06:12.482Z,63.50
2023-04-03T15:08:42.127Z,64.40
2023-04-03T15:11:12.662Z,63.80
2023-04-03T15:13:41.848Z,60.40
2023-04-03T15:16:19.988Z,62.20
2023-04-03T15:18:49.323Z,58.00
2023-04-03T15:21:17.788Z,57.10
2023-04-03T15:23:46.123Z,54.20
2023-04-03T15:26:16.395Z,56.60
2023-04-03T15:28:45.570Z,53.60
2023-04-03T15:31:13.878Z,52.80
2023-04-03T15:33:42.464Z,51.50
2023-04-03T15:36:29.242Z,52.10
2023-04-03T15:38:59.799Z,54.60
2023-04-03T15:41:29.421Z,49.40
2023-04-03T15:43:57.686Z,55.30
2023-04-03T15:46:26.234Z,51.20
2023-04-03T15:48:55.928Z,56.30
2023-04-03T15:51:24.380Z,57.50
2023-04-03T15:53:52.802Z,50.50
2023-04-03T15:56:21.227Z,53.40
2023-04-03T15:58:51.073Z,54.80
2023-04-03T16:01:20.518Z,51.40
2023-04-03T16:03:49.062Z,58.60
2023-04-03T16:06:19.534Z,59.30
2023-04-03T16:08:52.772Z,59.90
2023-04-03T16:11:24.022Z,72.00
2023-04-03T16:13:53.721Z,61.50
2023-04-03T16:16:22.499Z,60.20
2023-04-03T16:18:51.288Z,63.30
2023-04-03T16:21:19.835Z,55.60
2023-04-03T16:23:51.077Z,55.50
2023-04-03T16:26:19.499Z,51.70
2023-04-03T16:28:47.937Z,52.60
2023-04-03T16:31:19.166Z,55.10
2023-04-03T16:33:47.711Z,38.00
2023-04-03T16:36:16.281Z,35.60
2023-04-03T16:38:44.645Z,40.00
2023-04-03T16:41:13.041Z,35.70
2023-04-03T16:46:12.055Z,31.40
2023-04-03T16:48:42.163Z,33.30
2023-04-03T16:51:10.968Z,34.50
2023-04-03T16:53:39.340Z,35.00
2023-04-03T16:56:07.979Z,29.00
2023-04-03T16:58:36.384Z,27.90
2023-04-03T17:01:11.766Z,27.00
2023-04-03T17:03:41.815Z,32.30
2023-04-03T17:06:15.688Z,20.90
2023-04-03T17:08:44.123Z,21.30
2023-04-03T17:11:16.128Z,47.90
2023-04-03T17:13:44.433Z,25.30
2023-04-03T17:16:15.829Z,23.40
2023-04-03T17:18:46.541Z,22.80
2023-04-03T17:21:16.298Z,13.80
2023-04-03T17:23:49.866Z,17.00
2023-04-03T17:26:18.453Z,16.60
2023-04-03T17:28:46.894Z,12.20
2023-04-03T17:31:15.574Z,8.00
2023-04-03T17:33:45.369Z,8.20
2023-04-03T17:36:13.682Z,5.50
2023-04-03T17:38:42.304Z,1.00
2023-04-03T17:41:11.311Z,1.60
2023-04-03T17:43:39.610Z,2.70
2023-04-03T17:46:16.842Z,1.00
2023-04-03T17:48:46.790Z,1.00
2023-04-03T17:51:17.401Z,1.00
2023-04-03T17:53:46.091Z,4.40
2023-04-03T17:56:16.429Z,1.00
2023-04-03T17:58:45.348Z,1.00
2023-04-03T18:01:15.535Z,1.00
2023-04-03T18:03:47.994Z,1.00
2023-04-03T18:06:23.259Z,1.00
2023-04-03T18:08:54.383Z,1.00
2023-04-03T18:11:27.384Z,1.00
2023-04-03T18:13:59.601Z,1.00
2023-04-03T18:16:29.739Z,3.30
2023-04-03T18:19:20.589Z,1.00
2023-04-03T18:21:48.256Z,1.00
2023-04-03T18:24:19.385Z,1.00
2023-04-03T18:26:51.314Z,1.00
2023-04-03T18:29:20.444Z,1.00
2023-04-03T18:31:51.824Z,1.00
2023-04-03T18:34:20.267Z,1.00
2023-04-03T18:36:51.526Z,1.00
2023-04-03T18:39:20.018Z,1.00
2023-04-03T18:41:48.901Z,1.00
2023-04-03T18:44:19.555Z,1.00
2023-04-03T18:46:48.267Z,1.00
2023-04-03T18:49:18.426Z,1.00
2023-04-03T18:51:47.053Z,1.00
2023-04-03T18:54:21.891Z,1.00
2023-04-03T18:56:50.407Z,1.00
2023-04-03T18:59:23.862Z,1.00
2023-04-03T19:02:03.161Z,1.00
2023-04-03T19:04:32.251Z,1.00
2023-04-03T19:07:05.600Z,1.00
2023-04-03T19:09:35.707Z,1.00
2023-04-03T19:12:03.988Z,1.00
2023-04-03T19:14:32.314Z,1.00
2023-04-03T19:17:02.337Z,1.00
2023-04-03T19:19:31.759Z,1.00
2023-04-03T19:22:00.130Z,1.00
2023-04-03T19:24:28.493Z,1.00
2023-04-03T19:26:58.236Z,1.00
2023-04-03T19:29:26.527Z,1.00
2023-04-03T19:31:54.857Z,2.00
2023-04-03T19:34:23.176Z,1.00
2023-04-03T19:36:52.301Z,1.00
2023-04-03T19:39:20.933Z,1.00
2023-04-03T19:41:49.957Z,1.00
2023-04-03T19:44:20.050Z,1.00
2023-04-03T19:46:51.109Z,1.00
2023-04-03T19:49:20.596Z,1.00
2023-04-03T19:51:49.073Z,1.00
2023-04-03T19:54:17.346Z,1.00
2023-04-03T19:56:46.482Z,1.00
2023-04-03T19:59:14.912Z,1.00
2023-04-03T20:01:46.410Z,1.00
2023-04-03T20:04:15.729Z,1.00
2023-04-03T20:06:46.110Z,1.00
2023-04-03T20:09:14.789Z,1.00
2023-04-03T20:11:43.374Z,1.00
2023-04-03T20:14:11.790Z,1.00
2023-04-03T20:16:40.234Z,1.00
2023-04-03T20:19:09.942Z,1.00
2023-04-03T20:21:38.850Z,1.00
2023-04-03T20:24:10.814Z,1.00
2023-04-03T20:26:46.233Z,1.00
2023-04-03T20:29:16.638Z,1.00
2023-04-03T20:31:45.227Z,1.00
2023-04-03T20:34:16.141Z,1.00
2023-04-03T20:36:47.978Z,1.00
2023-04-03T20:39:19.183Z,1.00
2023-04-03T20:41:47.614Z,1.00
2023-04-03T20:44:17.723Z,1.00
2023-04-03T20:46:52.729Z,1.00
2023-04-03T20:49:24.981Z,1.00
2023-04-03T20:51:53.579Z,1.00
2023-04-03T20:54:22.069Z,1.00
2023-04-03T20:56:50.600Z,1.00
2023-04-03T20:59:19.190Z,1.00
2023-04-03T21:01:49.000Z,1.00
2023-04-03T21:04:21.125Z,1.00
2023-04-03T21:07:27.492Z,1.00
2023-04-03T21:10:33.422Z,1.00
2023-04-03T21:13:39.166Z,1.00
2023-04-03T21:16:07.110Z,1.00
2023-04-03T21:19:10.344Z,1.00
2023-04-03T21:21:38.949Z,3.90
2023-04-03T21:24:10.177Z,4.60
2023-04-03T21:26:40.350Z,6.90
2023-04-03T21:29:09.427Z,8.10
2023-04-03T21:31:52.851Z,12.20
2023-04-03T21:34:23.612Z,11.10
2023-04-03T21:36:53.058Z,15.30
2023-04-03T21:39:23.231Z,14.10
2023-04-03T21:41:52.538Z,20.10
2023-04-03T21:44:22.284Z,20.40
2023-04-03T21:46:53.802Z,24.80
2023-04-03T21:49:24.461Z,27.00
2023-04-03T21:51:52.805Z,24.40
2023-04-03T21:54:21.572Z,23.90
2023-04-03T21:56:52.456Z,25.80
2023-04-03T21:59:21.270Z,27.60
2023-04-03T22:01:49.807Z,32.60
2023-04-03T22:04:18.091Z,34.20
2023-04-03T22:06:47.755Z,39.70
